地図

経路データ

SID SEASON NUMBER BASIN SUBBASIN NAME ISO_TIME NATURE LAT LON WMO_WIND WMO_PRES WMO_AGENCY TRACK_TYPE DIST2LAND LANDFALL IFLAG USA_AGENCY USA_ATCF_ID USA_LAT USA_LON USA_RECORD USA_STATUS USA_WIND USA_PRES USA_SSHS USA_R34_NE USA_R34_SE USA_R34_SW USA_R34_NW USA_R50_NE USA_R50_SE USA_R50_SW USA_R50_NW USA_R64_NE USA_R64_SE USA_R64_SW USA_R64_NW USA_POCI USA_ROCI USA_RMW USA_EYE TOKYO_LAT TOKYO_LON TOKYO_GRADE TOKYO_WIND TOKYO_PRES TOKYO_R50_DIR TOKYO_R50_LONG TOKYO_R50_SHORT TOKYO_R30_DIR TOKYO_R30_LONG TOKYO_R30_SHORT TOKYO_LAND CMA_LAT CMA_LON CMA_CAT CMA_WIND CMA_PRES HKO_LAT HKO_LON HKO_CAT HKO_WIND HKO_PRES NEWDELHI_LAT NEWDELHI_LON NEWDELHI_GRADE NEWDELHI_WIND NEWDELHI_PRES NEWDELHI_CI NEWDELHI_DP NEWDELHI_POCI REUNION_LAT REUNION_LON REUNION_TYPE REUNION_WIND REUNION_PRES REUNION_TNUM REUNION_CI REUNION_RMW REUNION_R34_NE REUNION_R34_SE REUNION_R34_SW REUNION_R34_NW REUNION_R50_NE REUNION_R50_SE REUNION_R50_SW REUNION_R50_NW REUNION_R64_NE REUNION_R64_SE REUNION_R64_SW REUNION_R64_NW BOM_LAT BOM_LON BOM_TYPE BOM_WIND BOM_PRES BOM_TNUM BOM_CI BOM_RMW BOM_R34_NE BOM_R34_SE BOM_R34_SW BOM_R34_NW BOM_R50_NE BOM_R50_SE BOM_R50_SW BOM_R50_NW BOM_R64_NE BOM_R64_SE BOM_R64_SW BOM_R64_NW BOM_ROCI BOM_POCI BOM_EYE BOM_POS_METHOD BOM_PRES_METHOD NADI_LAT NADI_LON NADI_CAT NADI_WIND NADI_PRES WELLINGTON_LAT WELLINGTON_LON WELLINGTON_WIND WELLINGTON_PRES DS824_LAT DS824_LON DS824_STAGE DS824_WIND DS824_PRES TD9636_LAT TD9636_LON TD9636_STAGE TD9636_WIND TD9636_PRES TD9635_LAT TD9635_LON TD9635_WIND TD9635_PRES TD9635_ROCI NEUMANN_LAT NEUMANN_LON NEUMANN_CLASS NEUMANN_WIND NEUMANN_PRES MLC_LAT MLC_LON MLC_CLASS MLC_WIND MLC_PRES USA_GUST BOM_GUST BOM_GUST_PER REUNION_GUST REUNION_GUST_PER USA_SEAHGT USA_SEARAD_NE USA_SEARAD_SE USA_SEARAD_SW USA_SEARAD_NW STORM_SPEED STORM_DIR
1996279N23264 1996 93 NA GM JOSEPHINE 1996-10-04 18:00:00 TS 22.7000 -96.2000 25 1003 hurdat_atl main 164 163 O_____________ hurdat_atl AL101996 22.7000 -96.2000 TD 25 1003 -1 3 12
1996279N23264 1996 93 NA GM JOSEPHINE 1996-10-04 21:00:00 TS 22.8500 -96.1475 main 174 173 P_____________ AL101996 22.8500 -96.1475 TD 27 1003 -1 3 16
1996279N23264 1996 93 NA GM JOSEPHINE 1996-10-05 00:00:00 TS 23.0000 -96.1000 30 1003 hurdat_atl main 173 173 O_____________ hurdat_atl AL101996 23.0000 -96.1000 TD 30 1003 -1 3 14
1996279N23264 1996 93 NA GM JOSEPHINE 1996-10-05 03:00:00 TS 23.1500 -96.0575 main 173 173 P_____________ AL101996 23.1500 -96.0575 TD 30 1003 -1 3 16
1996279N23264 1996 93 NA GM JOSEPHINE 1996-10-05 06:00:00 TS 23.3000 -96.0000 30 1003 hurdat_atl main 183 183 O_____________ hurdat_atl AL101996 23.3000 -96.0000 TD 30 1003 -1 3 26
1996279N23264 1996 93 NA GM JOSEPHINE 1996-10-05 09:00:00 TS 23.4200 -95.9149 main 193 193 P_____________ AL101996 23.4200 -95.9149 TD 30 1003 -1 4 31
1996279N23264 1996 93 NA GM JOSEPHINE 1996-10-05 12:00:00 TS 23.6000 -95.8000 30 1003 hurdat_atl main 203 203 O_____________ hurdat_atl AL101996 23.6000 -95.8000 TD 30 1003 -1 6 23
1996279N23264 1996 93 NA GM JOSEPHINE 1996-10-05 15:00:00 TS 23.9350 -95.6725 main 213 210 P_____________ AL101996 23.9350 -95.6725 TD 30 1003 -1 8 21
1996279N23264 1996 93 NA GM JOSEPHINE 1996-10-05 18:00:00 TS 24.3000 -95.5000 30 1003 hurdat_atl main 216 211 O_____________ hurdat_atl AL101996 24.3000 -95.5000 TD 30 1003 -1 8 30
1996279N23264 1996 93 NA GM JOSEPHINE 1996-10-05 21:00:00 TS 24.5875 -95.2651 main 220 220 P_____________ AL101996 24.5875 -95.2651 TD 30 1002 -1 7 42
1996279N23264 1996 93 NA GM JOSEPHINE 1996-10-06 00:00:00 TS 24.8000 -95.0000 30 1002 hurdat_atl main 238 238 O_____________ hurdat_atl AL101996 24.8000 -95.0000 TD 30 1002 -1 6 52
1996279N23264 1996 93 NA GM JOSEPHINE 1996-10-06 03:00:00 TS 24.9297 -94.7873 main 253 253 P_____________ AL101996 24.9297 -94.7873 TD 30 1002 -1 5 66
1996279N23264 1996 93 NA GM JOSEPHINE 1996-10-06 06:00:00 TS 25.0000 -94.5000 30 1002 hurdat_atl main 279 279 O_____________ hurdat_atl AL101996 25.0000 -94.5000 TD 30 1002 -1 6 78
1996279N23264 1996 93 NA GM JOSEPHINE 1996-10-06 09:00:00 TS 25.0645 -94.0900 main 316 316 P_____________ AL101996 25.0645 -94.0900 TD 30 1002 -1 9 84
1996279N23264 1996 93 NA GM JOSEPHINE 1996-10-06 12:00:00 TS 25.1000 -93.5000 30 1003 hurdat_atl main 374 374 O_____________ hurdat_atl AL101996 25.1000 -93.5000 TD 30 1003 -1 13 89
1996279N23264 1996 93 NA GM JOSEPHINE 1996-10-06 15:00:00 TS 25.0782 -92.6793 main 452 452 P_____________ AL101996 25.0782 -92.6793 TD 32 1002 -1 15 90
1996279N23264 1996 93 NA GM JOSEPHINE 1996-10-06 18:00:00 TS 25.1000 -91.8000 35 1001 hurdat_atl main 455 424 O_____________ hurdat_atl AL101996 25.1000 -91.8000 TS 35 1001 0 15 82
1996279N23264 1996 93 NA GM JOSEPHINE 1996-10-06 21:00:00 TS 25.2692 -91.0852 main 424 402 P_____________ AL101996 25.2692 -91.0852 TS 37 998 0 13 72
1996279N23264 1996 93 NA GM JOSEPHINE 1996-10-07 00:00:00 TS 25.5000 -90.4000 40 996 hurdat_atl main 402 384 O_____________ hurdat_atl AL101996 25.5000 -90.4000 TS 40 996 0 13 73
1996279N23264 1996 93 NA GM JOSEPHINE 1996-10-07 03:00:00 TS 25.6546 -89.6638 main 373 346 P_____________ AL101996 25.6546 -89.6638 TS 45 994 0 14 74
1996279N23264 1996 93 NA GM JOSEPHINE 1996-10-07 06:00:00 TS 25.9000 -88.9000 50 992 hurdat_atl main 346 314 O_____________ hurdat_atl AL101996 25.9000 -88.9000 TS 50 992 0 16 64
1996279N23264 1996 93 NA GM JOSEPHINE 1996-10-07 09:00:00 TS 26.3326 -88.0852 main 317 291 P_____________ AL101996 26.3326 -88.0852 TS 55 986 0 18 55
1996279N23264 1996 93 NA GM JOSEPHINE 1996-10-07 12:00:00 TS 26.9000 -87.3000 60 981 hurdat_atl main 293 276 O_____________ hurdat_atl AL101996 26.9000 -87.3000 TS 60 981 0 18 47
1996279N23264 1996 93 NA GM JOSEPHINE 1996-10-07 15:00:00 TS 27.5416 -86.6418 main 272 177 P_____________ AL101996 27.5416 -86.6418 TS 60 982 0 17 42
1996279N23264 1996 93 NA GM JOSEPHINE 1996-10-07 18:00:00 TS 28.2000 -86.0000 60 983 hurdat_atl main 177 111 O_____________ hurdat_atl AL101996 28.2000 -86.0000 TS 60 983 0 17 46
1996279N23264 1996 93 NA GM JOSEPHINE 1996-10-07 21:00:00 TS 28.7546 -85.2182 main 100 59 P_____________ AL101996 28.7546 -85.2182 TS 60 983 0 17 50
1996279N23264 1996 93 NA GM JOSEPHINE 1996-10-08 00:00:00 TS 29.3000 -84.5000 60 983 hurdat_atl main 59 14 O_____________ hurdat_atl AL101996 29.3000 -84.5000 TS 60 983 0 15 42
1996279N23264 1996 93 NA GM JOSEPHINE 1996-10-08 03:00:00 TS 29.8634 -84.0823 main 19 9 P_____________ AL101996 29.8634 -84.0823 TS 60 983 0 15 37
1996279N23264 1996 93 NA GM JOSEPHINE 1996-10-08 03:30:00 TS 30.0000 -83.9000 60 983 hurdat_atl main 9 0 O_____________ hurdat_atl AL101996 30.0000 -83.9000 L TS 60 983 0 37 56
1996279N23264 1996 93 NA NA JOSEPHINE 1996-10-08 06:00:00 ET 30.9000 -82.3000 45 990 hurdat_atl main 0 0 O_____________ hurdat_atl AL101996 30.9000 -82.3000 EX 45 990 -4 41 50
1996279N23264 1996 93 NA NA JOSEPHINE 1996-10-08 09:00:00 ET 32.4186 -80.5738 main 0 0 P_____________ AL101996 32.4186 -80.5738 EX 45 989 -4 42 42
1996279N23264 1996 93 NA NA JOSEPHINE 1996-10-08 12:00:00 ET 34.0000 -79.0000 45 988 hurdat_atl main 0 0 O_____________ hurdat_atl AL101996 34.0000 -79.0000 EX 45 988 -4 37 44
1996279N23264 1996 93 NA NA JOSEPHINE 1996-10-08 15:00:00 ET 35.0807 -77.4328 main 0 0 P_____________ AL101996 35.0807 -77.4328 EX 45 987 -4 32 51
1996279N23264 1996 93 NA NA JOSEPHINE 1996-10-08 18:00:00 ET 36.0000 -76.0000 45 986 hurdat_atl main 14 0 O_____________ hurdat_atl AL101996 36.0000 -76.0000 EX 45 986 -4 29 50
1996279N23264 1996 93 NA NA JOSEPHINE 1996-10-08 21:00:00 ET 36.9226 -74.7040 main 108 108 P_____________ AL101996 36.9226 -74.7040 EX 45 984 -4 28 45
1996279N23264 1996 93 NA NA JOSEPHINE 1996-10-09 00:00:00 ET 38.0000 -73.5000 45 983 hurdat_atl main 143 142 O_____________ hurdat_atl AL101996 38.0000 -73.5000 EX 45 983 -4 32 36
1996279N23264 1996 93 NA NA JOSEPHINE 1996-10-09 03:00:00 ET 39.5349 -72.2906 main 146 61 P_____________ AL101996 39.5349 -72.2906 EX 45 981 -4 36 33
1996279N23264 1996 93 NA NA JOSEPHINE 1996-10-09 06:00:00 ET 41.0000 -71.0000 45 980 hurdat_atl main 55 11 O_____________ hurdat_atl AL101996 41.0000 -71.0000 EX 45 980 -4 31 43
1996279N23264 1996 93 NA NA JOSEPHINE 1996-10-09 09:00:00 ET 41.8256 -69.4901 main 41 41 P_____________ AL101996 41.8256 -69.4901 EX 45 980 -4 27 56
1996279N23264 1996 93 NA NA JOSEPHINE 1996-10-09 12:00:00 ET 42.5000 -68.0000 45 980 hurdat_atl main 181 65 O_____________ hurdat_atl AL101996 42.5000 -68.0000 EX 45 980 -4 26 51
1996279N23264 1996 93 NA NA JOSEPHINE 1996-10-09 15:00:00 ET 43.4586 -66.7447 main 52 0 P_____________ AL101996 43.4586 -66.7447 EX 45 982 -4 27 42
1996279N23264 1996 93 NA NA JOSEPHINE 1996-10-09 18:00:00 ET 44.5000 -65.5000 45 984 hurdat_atl main 0 0 O_____________ hurdat_atl AL101996 44.5000 -65.5000 EX 45 984 -4 28 42
1996279N23264 1996 93 NA NA JOSEPHINE 1996-10-09 21:00:00 ET 45.4946 -64.1400 main 0 0 P_____________ AL101996 45.4946 -64.1400 EX 45 984 -4 29 46
1996279N23264 1996 93 NA NA JOSEPHINE 1996-10-10 00:00:00 ET 46.5000 -62.5000 45 985 hurdat_atl main 11 11 O_____________ hurdat_atl AL101996 46.5000 -62.5000 EX 45 985 -4 34 52
1996279N23264 1996 93 NA NA JOSEPHINE 1996-10-10 03:00:00 ET 47.5821 -60.2621 main 74 0 P_____________ AL101996 47.5821 -60.2621 EX 45 985 -4 36 57
1996279N23264 1996 93 NA NA JOSEPHINE 1996-10-10 06:00:00 ET 48.5000 -58.0000 45 985 hurdat_atl main 0 0 O_____________ hurdat_atl AL101996 48.5000 -58.0000 EX 45 985 -4 29 59
1996279N23264 1996 93 NA NA JOSEPHINE 1996-10-10 09:00:00 ET 49.0606 -56.5177 main 0 0 P_____________ AL101996 49.0606 -56.5177 EX 45 984 -4 22 63
1996279N23264 1996 93 NA NA JOSEPHINE 1996-10-10 12:00:00 ET 49.5000 -55.0000 45 983 hurdat_atl main 18 11 O_____________ hurdat_atl AL101996 49.5000 -55.0000 EX 45 983 -4 26 68
1996279N23264 1996 93 NA NA JOSEPHINE 1996-10-10 15:00:00 ET 50.0354 -52.7273 main 96 96 P_____________ AL101996 50.0354 -52.7273 EX 45 983 -4 34 73
1996279N23264 1996 93 NA NA JOSEPHINE 1996-10-10 18:00:00 ET 50.5000 -50.0000 45 984 hurdat_atl main 282 282 O_____________ hurdat_atl AL101996 50.5000 -50.0000 EX 45 984 -4 37 78
1996279N23264 1996 93 NA NA JOSEPHINE 1996-10-10 21:00:00 ET 50.8224 -47.0733 main 484 484 P_____________ AL101996 50.8224 -47.0733 EX 45 984 -4 38 82
1996279N23264 1996 93 NA NA JOSEPHINE 1996-10-11 00:00:00 ET 51.0000 -44.0000 45 984 hurdat_atl main 698 698 O_____________ hurdat_atl AL101996 51.0000 -44.0000 EX 45 984 -4 38 87
1996279N23264 1996 93 NA NA JOSEPHINE 1996-10-11 03:00:00 ET 51.0296 -40.9928 main 900 900 P_____________ AL101996 51.0296 -40.9928 EX 45 985 -4 38 90
1996279N23264 1996 93 NA NA JOSEPHINE 1996-10-11 06:00:00 ET 51.0000 -38.0000 45 986 hurdat_atl main 1056 1056 O_____________ hurdat_atl AL101996 51.0000 -38.0000 EX 45 986 -4 38 91
1996279N23264 1996 93 NA NA JOSEPHINE 1996-10-11 09:00:00 ET 50.9924 -35.0000 main 1126 1126 P_____________ AL101996 50.9924 -35.0000 EX 45 987 -4 38 90
1996279N23264 1996 93 NA NA JOSEPHINE 1996-10-11 12:00:00 ET 51.0000 -32.0000 45 988 hurdat_atl main 1220 1220 O_____________ hurdat_atl AL101996 51.0000 -32.0000 EX 45 988 -4 38 90
1996279N23264 1996 93 NA NA JOSEPHINE 1996-10-11 15:00:00 ET 50.9978 -28.9258 main 1268 1084 P_____________ AL101996 50.9978 -28.9258 EX 45 988 -4 38 90
1996279N23264 1996 93 NA NA JOSEPHINE 1996-10-11 18:00:00 ET 51.0000 -26.0000 45 989 hurdat_atl main 1071 894 O_____________ hurdat_atl AL101996 51.0000 -26.0000 EX 45 989 -4 35 90
1996279N23264 1996 93 NA NA JOSEPHINE 1996-10-11 21:00:00 ET 50.9977 -23.2767 main 887 738 P_____________ AL101996 50.9977 -23.2767 EX 45 987 -4 31 90
1996279N23264 1996 93 NA NA JOSEPHINE 1996-10-12 00:00:00 ET 51.0000 -21.0000 45 985 hurdat_atl main 731 617 O_____________ hurdat_atl AL101996 51.0000 -21.0000 EX 45 985 -4 25 91
1996279N23264 1996 93 NA NA JOSEPHINE 1996-10-12 03:00:00 ET 50.9569 -19.2363 main 610 536 P_____________ AL101996 50.9569 -19.2363 EX 45 982 -4 19 90
1996279N23264 1996 93 NA NA JOSEPHINE 1996-10-12 06:00:00 ET 51.0000 -18.0000 45 980 hurdat_atl main 529 463 O_____________ hurdat_atl AL101996 51.0000 -18.0000 EX 45 980 -4 14 81
1996279N23264 1996 93 NA NA JOSEPHINE 1996-10-12 09:00:00 ET 51.1722 -17.1000 main 463 415 P_____________ AL101996 51.1722 -17.1000 EX 45 981 -4 11 62
1996279N23264 1996 93 NA NA JOSEPHINE 1996-10-12 12:00:00 ET 51.5000 -16.5000 45 982 hurdat_atl main 415 367 O_____________ hurdat_atl AL101996 51.5000 -16.5000 EX 45 982 -4 11 42
1996279N23264 1996 93 NA NA JOSEPHINE 1996-10-12 15:00:00 ET 51.9998 -15.8898 main 367 340 P_____________ AL101996 51.9998 -15.8898 EX 47 979 -4 12 32
1996279N23264 1996 93 NA NA JOSEPHINE 1996-10-12 18:00:00 ET 52.5000 -15.5000 50 977 hurdat_atl main 341 335 O_____________ hurdat_atl AL101996 52.5000 -15.5000 EX 50 977 -4 8 20
1996279N23264 1996 93 NA NA JOSEPHINE 1996-10-12 21:00:00 ET 52.7871 -15.4228 main 339 339 P_____________ AL101996 52.7871 -15.4228 EX 52 975 -4 5 2
1996279N23264 1996 93 NA NA JOSEPHINE 1996-10-13 00:00:00 ET 53.0000 -15.5000 55 973 hurdat_atl main 350 350 O_____________ hurdat_atl AL101996 53.0000 -15.5000 EX 55 973 -4 5 355
1996279N23264 1996 93 NA NA JOSEPHINE 1996-10-13 03:00:00 ET 53.2500 -15.5000 main 349 349 P_____________ AL101996 53.2500 -15.5000 EX 57 972 -4 5 2
1996279N23264 1996 93 NA NA JOSEPHINE 1996-10-13 06:00:00 ET 53.5000 -15.5000 60 971 hurdat_atl main 349 349 O_____________ hurdat_atl AL101996 53.5000 -15.5000 EX 60 971 -4 4 0
1996279N23264 1996 93 NA NA JOSEPHINE 1996-10-13 09:00:00 ET 53.6750 -15.5000 main 349 349 P_____________ AL101996 53.6750 -15.5000 EX 57 971 -4 5 2
1996279N23264 1996 93 NA NA JOSEPHINE 1996-10-13 12:00:00 ET 54.0000 -15.5000 55 972 hurdat_atl main 350 348 O_____________ hurdat_atl AL101996 54.0000 -15.5000 EX 55 972 -4 10 1
1996279N23264 1996 93 NA NA JOSEPHINE 1996-10-13 15:00:00 ET 54.6375 -15.4652 main 350 350 P_____________ AL101996 54.6375 -15.4652 EX 52 974 -4 15 0
1996279N23264 1996 93 NA NA JOSEPHINE 1996-10-13 18:00:00 ET 55.5000 -15.5000 50 977 hurdat_atl main 372 372 O_____________ hurdat_atl AL101996 55.5000 -15.5000 EX 50 977 -4 18 357
1996279N23264 1996 93 NA NA JOSEPHINE 1996-10-13 21:00:00 ET 56.4239 -15.6098 main 423 423 P_____________ AL101996 56.4239 -15.6098 EX 47 979 -4 20 352
1996279N23264 1996 93 NA NA JOSEPHINE 1996-10-14 00:00:00 ET 57.5000 -16.0000 45 982 hurdat_atl main 517 517 O_____________ hurdat_atl AL101996 57.5000 -16.0000 EX 45 982 -4 25 344
1996279N23264 1996 93 NA NA JOSEPHINE 1996-10-14 03:00:00 ET 58.8262 -16.8710 main 517 389 P_____________ AL101996 58.8262 -16.8710 EX 45 979 -4 27 337
1996279N23264 1996 93 NA NA JOSEPHINE 1996-10-14 06:00:00 ET 60.0000 -18.0000 45 977 hurdat_atl main 377 309 O_____________ hurdat_atl AL101996 60.0000 -18.0000 EX 45 977 -4 21 329
1996279N23264 1996 93 NA NA JOSEPHINE 1996-10-14 09:00:00 ET 60.6115 -19.0133 main 310 272 P_____________ AL101996 60.6115 -19.0133 EX 45 974 -4 14 316
1996279N23264 1996 93 NA NA JOSEPHINE 1996-10-14 12:00:00 ET 61.0000 -20.0000 45 972 hurdat_atl main 273 224 O_____________ hurdat_atl AL101996 61.0000 -20.0000 EX 45 972 -4 13 314
1996279N23264 1996 93 NA NA JOSEPHINE 1996-10-14 15:00:00 ET 61.5367 -20.9995 main 224 186 P_____________ AL101996 61.5367 -20.9995 EX 45 971 -4 14 316
1996279N23264 1996 93 NA NA JOSEPHINE 1996-10-14 18:00:00 ET 62.0000 -22.0000 45 970 hurdat_atl main 189 166 O_____________ hurdat_atl AL101996 62.0000 -22.0000 EX 45 970 -4 12 309
1996279N23264 1996 93 NA NA JOSEPHINE 1996-10-14 21:00:00 ET 62.2867 -23.0053 main 166 153 P_____________ AL101996 62.2867 -23.0053 EX 45 971 -4 11 298
1996279N23264 1996 93 NA NA JOSEPHINE 1996-10-15 00:00:00 ET 62.5000 -24.0000 45 972 hurdat_atl main 157 152 O_____________ hurdat_atl AL101996 62.5000 -24.0000 EX 45 972 -4 10 299
1996279N23264 1996 93 NA NA JOSEPHINE 1996-10-15 03:00:00 ET 62.7867 -24.9979 main 158 158 P_____________ AL101996 62.7867 -24.9979 EX 45 975 -4 10 299
1996279N23264 1996 93 NA NA JOSEPHINE 1996-10-15 06:00:00 ET 63.0000 -26.0000 45 978 hurdat_atl main 185 185 O_____________ hurdat_atl AL101996 63.0000 -26.0000 EX 45 978 -4 10 285
1996279N23264 1996 93 NA NA JOSEPHINE 1996-10-15 09:00:00 ET 63.0375 -27.0413 main 230 230 P_____________ AL101996 63.0375 -27.0413 EX 42 980 -4 9 270
1996279N23264 1996 93 NA NA JOSEPHINE 1996-10-15 12:00:00 ET 63.0000 -28.0000 40 983 hurdat_atl main 276 276 O_____________ hurdat_atl AL101996 63.0000 -28.0000 EX 40 983 -4 8 267
1996279N23264 1996 93 NA NA JOSEPHINE 1996-10-15 15:00:00 ET 62.9995 -28.8249 main 307 307 P_____________ AL101996 62.9995 -28.8249 EX 37 985 -4 7 270
1996279N23264 1996 93 NA NA JOSEPHINE 1996-10-15 18:00:00 ET 63.0000 -29.5000 35 988 hurdat_atl main 334 334 O_____________ hurdat_atl AL101996 63.0000 -29.5000 EX 35 988 -4 5 270
1996279N23264 1996 93 NA NA JOSEPHINE 1996-10-15 21:00:00 ET 63.0003 -30.0375 main 355 355 P_____________ AL101996 63.0003 -30.0375 EX 32 990 -4 5 270
1996279N23264 1996 93 NA NA JOSEPHINE 1996-10-16 00:00:00 ET 63.0000 -30.5000 30 992 hurdat_atl main 376 O_____________ hurdat_atl AL101996 63.0000 -30.5000 EX 30 992 -4 4 270

IBTrACS Databaseについて

本データベースは、米国NOAAが公開する1842年以降の世界の熱帯低気圧のベストトラックデータアーカイブInternational Best Track Archive for Climate Stewardship (IBTrACS)を、ウェブで閲覧しやすい形式に変換したものです。

最終更新日:2021-12-06